Time;durP1;ratioP1;P1;durP2;ratioP2;P2;SDS_P1;SDS_P2;PMS_P1;PMS_P2;Temp;Humidity;BMP_temperature;BMP_pressure;BME280_temperature;BME280_humidity;BME280_pressure;Samples;Min_cycle;Max_cycle;Signal;HPM_P1;HPM_P2
2021/01/22 00:02:21;;;;;;;8.27;3.70;;;9.70;99.90;;;;;;5061137;28;20032;-49
2021/01/22 00:04:47;;;;;;;5.53;3.15;;;9.70;99.90;;;;;;5064503;28;20092;-48
2021/01/22 00:07:12;;;;;;;8.90;4.10;;;9.70;99.90;;;;;;5065410;28;20118;-49
2021/01/22 00:09:39;;;;;;;7.45;3.58;;;9.60;99.90;;;;;;5062654;28;20107;-49
2021/01/22 00:12:05;;;;;;;7.32;3.50;;;9.70;99.90;;;;;;5068605;28;20533;-49
2021/01/22 00:14:31;;;;;;;7.65;3.70;;;9.70;99.90;;;;;;5069041;28;20564;-52
2021/01/22 00:16:57;;;;;;;7.75;3.78;;;9.70;99.90;;;;;;5067195;28;20984;-51
2021/01/22 00:19:23;;;;;;;6.95;3.45;;;9.70;99.90;;;;;;5050452;28;20031;-47
2021/01/22 00:21:48;;;;;;;13.80;4.10;;;9.70;99.90;;;;;;5064400;28;20112;-48
2021/01/22 00:24:14;;;;;;;10.80;3.67;;;9.70;99.90;;;;;;5066526;28;20402;-49
2021/01/22 00:26:40;;;;;;;8.65;4.28;;;9.70;99.90;;;;;;5067862;28;20032;-48
2021/01/22 00:29:05;;;;;;;10.80;4.55;;;9.70;99.90;;;;;;5067058;28;20112;-49
2021/01/22 00:31:31;;;;;;;8.88;4.43;;;9.80;99.90;;;;;;5068424;28;20033;-49
2021/01/22 00:33:58;;;;;;;8.30;4.05;;;9.80;99.90;;;;;;5067286;28;20020;-47
2021/01/22 00:36:24;;;;;;;8.60;3.75;;;9.70;99.90;;;;;;5067783;28;20116;-46
2021/01/22 00:38:49;;;;;;;9.63;3.83;;;9.80;99.90;;;;;;5067469;28;20111;-47
2021/01/22 00:41:15;;;;;;;10.38;3.60;;;9.80;99.90;;;;;;5067775;28;20454;-47
2021/01/22 00:43:42;;;;;;;13.07;4.07;;;9.80;99.90;;;;;;5067792;28;20047;-48
2021/01/22 00:46:07;;;;;;;9.95;4.22;;;9.80;99.90;;;;;;5067053;28;20029;-48
2021/01/22 00:48:33;;;;;;;9.50;3.45;;;9.80;99.90;;;;;;5067841;28;20508;-48
2021/01/22 00:50:59;;;;;;;8.40;3.58;;;9.70;99.90;;;;;;5067575;28;20086;-47
2021/01/22 00:53:25;;;;;;;7.45;3.45;;;9.60;99.90;;;;;;5067488;28;20032;-47
2021/01/22 00:55:52;;;;;;;6.03;2.67;;;9.60;99.90;;;;;;5067158;28;20028;-48
2021/01/22 00:58:18;;;;;;;6.70;3.10;;;9.60;99.90;;;;;;5066919;28;20025;-48
2021/01/22 01:00:44;;;;;;;9.10;3.10;;;9.60;99.90;;;;;;5067277;28;20034;-48
2021/01/22 01:03:10;;;;;;;8.85;2.67;;;9.60;99.90;;;;;;5066823;28;20017;-48
2021/01/22 01:05:37;;;;;;;7.10;3.20;;;;;;;;;;5067374;28;20508;-48
2021/01/22 01:08:03;;;;;;;8.27;3.53;;;9.60;99.90;;;;;;5067335;28;20048;-48
2021/01/22 01:10:28;;;;;;;7.88;3.20;;;9.60;99.90;;;;;;5067234;28;20024;-48
2021/01/22 01:12:54;;;;;;;8.25;3.28;;;9.60;99.90;;;;;;5066911;28;20035;-48
2021/01/22 01:15:20;;;;;;;8.45;2.90;;;9.60;99.90;;;;;;5066782;28;20380;-47
2021/01/22 01:17:46;;;;;;;7.47;3.58;;;9.50;99.90;;;;;;5067058;28;20060;-47
2021/01/22 01:20:12;;;;;;;6.82;3.20;;;9.60;99.90;;;;;;5066674;28;20122;-48
2021/01/22 01:22:38;;;;;;;5.32;3.10;;;9.60;99.90;;;;;;5066221;28;20123;-49
2021/01/22 01:25:05;;;;;;;11.68;3.63;;;9.70;99.90;;;;;;5067172;28;20103;-49
2021/01/22 01:27:30;;;;;;;7.85;3.33;;;9.70;99.90;;;;;;5067363;28;20093;-47
2021/01/22 01:29:56;;;;;;;11.07;3.72;;;9.70;99.90;;;;;;5066542;28;20036;-49
2021/01/22 01:32:21;;;;;;;7.20;3.33;;;9.70;99.90;;;;;;5066642;28;20495;-48
2021/01/22 01:34:48;;;;;;;7.10;3.30;;;9.70;99.90;;;;;;5066569;28;20379;-47
2021/01/22 01:37:14;;;;;;;7.70;3.33;;;9.70;99.90;;;;;;5066393;28;20411;-48
2021/01/22 01:39:39;;;;;;;8.65;3.25;;;9.70;99.90;;;;;;5066616;28;20029;-48
2021/01/22 01:42:06;;;;;;;11.13;3.72;;;9.80;99.90;;;;;;5066146;28;20028;-46
2021/01/22 01:44:32;;;;;;;8.85;3.60;;;9.80;99.90;;;;;;5067072;28;20048;-48
2021/01/22 01:46:58;;;;;;;12.88;3.95;;;9.80;99.90;;;;;;5066149;28;20060;-48
2021/01/22 01:49:24;;;;;;;7.18;3.38;;;9.70;99.90;;;;;;5066313;28;20036;-48
2021/01/22 01:51:49;;;;;;;9.48;3.00;;;9.80;99.90;;;;;;5066233;28;20078;-47
2021/01/22 01:54:19;;;;;;;6.03;3.10;;;9.70;99.90;;;;;;5066285;28;20033;-47
2021/01/22 01:56:45;;;;;;;9.00;3.30;;;9.80;99.90;;;;;;5066199;28;20016;-48
2021/01/22 01:59:12;;;;;;;7.47;3.50;;;9.70;99.90;;;;;;5065421;28;20024;-47
2021/01/22 02:01:38;;;;;;;11.05;4.45;;;9.70;99.90;;;;;;5066301;28;20020;-48
2021/01/22 02:04:04;;;;;;;8.38;2.90;;;9.70;99.90;;;;;;5065703;28;20048;-51
2021/01/22 02:06:30;;;;;;;8.88;3.72;;;9.70;99.90;;;;;;5066546;28;20620;-47
2021/01/22 02:08:58;;;;;;;9.00;3.47;;;9.70;99.90;;;;;;5047784;28;20406;-47
2021/01/22 02:11:26;;;;;;;10.25;3.38;;;9.70;99.90;;;;;;5065832;28;20028;-47
2021/01/22 02:13:53;;;;;;;10.95;3.78;;;9.60;99.90;;;;;;5065451;28;20465;-47
2021/01/22 02:16:21;;;;;;;7.20;3.40;;;9.60;99.90;;;;;;5065688;28;20028;-48
2021/01/22 02:18:47;;;;;;;5.90;2.70;;;9.60;99.90;;;;;;5065861;28;20051;-47
2021/01/22 02:21:24;;;;;;;6.32;2.90;;;9.60;99.90;;;;;;5065765;28;20494;-47
2021/01/22 02:23:58;;;;;;;6.88;2.70;;;9.60;99.90;;;;;;5065920;28;20470;-47
2021/01/22 02:26:29;;;;;;;10.20;3.10;;;9.60;99.90;;;;;;5065624;28;20032;-48
2021/01/22 02:29:02;;;;;;;8.68;3.22;;;9.60;99.90;;;;;;5065227;28;20350;-48
2021/01/22 02:31:30;;;;;;;7.65;2.90;;;9.70;99.90;;;;;;5065743;28;20060;-48
2021/01/22 02:34:01;;;;;;;9.20;2.80;;;9.80;99.90;;;;;;5064985;28;20043;-48
2021/01/22 02:36:30;;;;;;;7.60;2.83;;;9.90;99.90;;;;;;5065258;28;20418;-47
2021/01/22 02:39:01;;;;;;;7.03;2.40;;;10.00;99.90;;;;;;5065212;28;20032;-48
2021/01/22 02:41:29;;;;;;;6.00;2.40;;;10.10;99.90;;;;;;5065605;28;20024;-47
2021/01/22 02:43:57;;;;;;;6.60;2.50;;;10.00;99.90;;;;;;5064726;28;20056;-50
2021/01/22 02:46:24;;;;;;;7.30;2.40;;;10.00;99.90;;;;;;5065237;28;20025;-48
2021/01/22 02:48:53;;;;;;;6.85;2.15;;;10.00;99.90;;;;;;5064750;28;20033;-48
2021/01/22 02:51:18;;;;;;;4.30;2.03;;;9.90;99.90;;;;;;5065337;28;20112;-48
2021/01/22 02:53:44;;;;;;;3.03;1.67;;;10.10;99.90;;;;;;5065114;28;20099;-52
2021/01/22 02:56:21;;;;;;;2.20;1.50;;;10.20;99.90;;;;;;5064766;28;20050;-48
2021/01/22 02:58:56;;;;;;;3.60;1.50;;;10.20;99.90;;;;;;5064214;28;20027;-47
2021/01/22 03:01:27;;;;;;;2.50;1.50;;;10.20;99.90;;;;;;5065253;28;20107;-49
2021/01/22 03:04:09;;;;;;;2.72;1.42;;;10.00;99.90;;;;;;5064532;28;20056;-47
2021/01/22 03:06:41;;;;;;;3.65;1.90;;;10.00;99.90;;;;;;5064971;28;20035;-48
2021/01/22 03:09:11;;;;;;;2.10;1.50;;;9.90;99.90;;;;;;5064697;28;20394;-48
2021/01/22 03:11:37;;;;;;;2.28;1.48;;;9.90;99.90;;;;;;5065001;28;20023;-48
2021/01/22 03:14:04;;;;;;;3.20;1.90;;;9.90;99.90;;;;;;5065219;28;20268;-50
2021/01/22 03:16:33;;;;;;;4.85;1.70;;;9.90;99.90;;;;;;5065265;28;20032;-51
2021/01/22 03:19:05;;;;;;;5.18;2.50;;;9.90;99.90;;;;;;5064957;28;20052;-50
2021/01/22 03:21:31;;;;;;;6.88;2.17;;;9.90;99.90;;;;;;5065634;28;20025;-52
2021/01/22 03:23:58;;;;;;;3.92;1.90;;;9.90;99.90;;;;;;5065099;28;20368;-50
2021/01/22 03:26:24;;;;;;;5.03;1.90;;;10.00;99.90;;;;;;5064435;28;20036;-50
2021/01/22 03:28:51;;;;;;;2.95;1.77;;;10.00;99.90;;;;;;5064805;28;20391;-48
2021/01/22 03:31:17;;;;;;;4.25;1.55;;;9.90;99.90;;;;;;5064835;28;20028;-52
2021/01/22 03:33:47;;;;;;;5.30;1.90;;;9.80;99.90;;;;;;5064545;28;20028;-49
2021/01/22 03:36:13;;;;;;;4.15;2.40;;;9.80;99.90;;;;;;5046413;28;20537;-51
2021/01/22 03:38:39;;;;;;;6.22;2.20;;;9.70;99.90;;;;;;5064551;28;20036;-47
2021/01/22 03:41:04;;;;;;;3.45;1.70;;;9.70;99.90;;;;;;5064007;28;20027;-50
2021/01/22 03:43:30;;;;;;;3.50;1.77;;;9.70;99.90;;;;;;5065507;28;20089;-50
2021/01/22 03:45:57;;;;;;;4.20;1.58;;;9.60;99.90;;;;;;5065918;28;20051;-47
2021/01/22 03:48:22;;;;;;;2.83;1.33;;;9.60;99.90;;;;;;5068565;28;20108;-47
2021/01/22 03:50:48;;;;;;;3.88;1.70;;;9.50;99.90;;;;;;5068503;28;20104;-47
2021/01/22 03:53:15;;;;;;;3.33;1.88;;;9.50;99.90;;;;;;5068666;28;20025;-49
2021/01/22 03:55:41;;;;;;;4.80;1.90;;;9.50;99.90;;;;;;5068767;28;20020;-47
2021/01/22 03:58:06;;;;;;;4.75;2.03;;;9.50;99.90;;;;;;5067737;28;20032;-48
2021/01/22 04:00:33;;;;;;;6.28;2.00;;;9.60;99.90;;;;;;5069251;28;20060;-51
2021/01/22 04:02:58;;;;;;;6.90;1.90;;;9.70;99.90;;;;;;5068534;28;20031;-50
2021/01/22 04:05:26;;;;;;;6.45;2.13;;;9.70;99.90;;;;;;5068394;28;20020;-51
2021/01/22 04:07:51;;;;;;;6.07;2.40;;;9.70;99.90;;;;;;5067968;28;20028;-51
2021/01/22 04:10:17;;;;;;;6.75;2.90;;;9.90;99.90;;;;;;5068209;28;20035;-51
2021/01/22 04:12:43;;;;;;;5.97;2.25;;;9.90;99.90;;;;;;5068505;28;20033;-49
2021/01/22 04:15:09;;;;;;;5.50;2.13;;;9.80;99.90;;;;;;5067845;28;20406;-51
2021/01/22 04:17:34;;;;;;;8.30;2.47;;;9.70;99.90;;;;;;5068005;28;20050;-50
2021/01/22 04:20:01;;;;;;;10.02;2.90;;;9.50;99.90;;;;;;5068474;28;20490;-51
2021/01/22 04:22:26;;;;;;;6.05;2.83;;;9.50;99.90;;;;;;5067861;28;20514;-50
2021/01/22 04:24:53;;;;;;;6.60;2.30;;;9.50;99.90;;;;;;5067691;28;20064;-48
2021/01/22 04:27:19;;;;;;;6.13;2.33;;;9.40;99.90;;;;;;5068272;28;20028;-50
2021/01/22 04:29:44;;;;;;;6.78;2.38;;;9.40;99.90;;;;;;5067972;28;20035;-49
2021/01/22 04:32:11;;;;;;;5.72;3.20;;;9.40;99.90;;;;;;5067476;28;20060;-48
2021/01/22 04:34:37;;;;;;;7.72;2.80;;;9.40;99.90;;;;;;5068688;28;20394;-47
2021/01/22 04:37:04;;;;;;;7.90;3.50;;;9.40;99.90;;;;;;5069246;28;20028;-48
2021/01/22 04:39:32;;;;;;;7.97;2.55;;;9.40;99.90;;;;;;5061431;28;20071;-48
2021/01/22 04:41:59;;;;;;;9.45;2.50;;;9.50;99.90;;;;;;5048854;28;20029;-48
2021/01/22 04:44:25;;;;;;;6.88;2.50;;;9.50;99.90;;;;;;5049293;28;20047;-52
2021/01/22 04:46:52;;;;;;;5.00;2.03;;;9.40;99.90;;;;;;5048611;28;20036;-49
2021/01/22 04:49:22;;;;;;;4.38;2.55;;;9.40;99.90;;;;;;5048983;28;20109;-50
2021/01/22 04:51:52;;;;;;;6.55;2.25;;;9.50;99.90;;;;;;5057886;28;20051;-52
2021/01/22 04:54:26;;;;;;;3.85;2.03;;;9.50;99.90;;;;;;5068582;28;20491;-50
2021/01/22 04:56:52;;;;;;;6.20;2.20;;;9.50;99.90;;;;;;5067633;28;20027;-51
2021/01/22 04:59:48;;;;;;;6.45;2.67;;;9.40;99.90;;;;;;5068106;28;20020;-52
2021/01/22 05:02:14;;;;;;;6.00;2.20;;;9.40;99.90;;;;;;5067554;28;20040;-48
2021/01/22 05:04:40;;;;;;;13.27;2.92;;;9.40;99.90;;;;;;5069097;28;20028;-50
2021/01/22 05:07:08;;;;;;;6.70;2.70;;;9.40;99.90;;;;;;5068017;28;20504;-48
2021/01/22 05:09:34;;;;;;;5.80;1.95;;;9.40;99.90;;;;;;5068810;28;20021;-51
2021/01/22 05:12:00;;;;;;;6.18;2.10;;;9.40;99.90;;;;;;5069073;28;20035;-48
2021/01/22 05:14:27;;;;;;;8.55;3.28;;;9.40;99.90;;;;;;5068790;28;20040;-49
2021/01/22 05:17:09;;;;;;;6.32;1.95;;;9.30;99.90;;;;;;5067613;28;20029;-51
2021/01/22 05:19:37;;;;;;;4.03;1.75;;;9.40;99.90;;;;;;5068612;28;20020;-51
2021/01/22 05:22:04;;;;;;;7.20;1.88;;;9.30;99.90;;;;;;5068868;28;20048;-51
2021/01/22 05:24:34;;;;;;;3.60;1.77;;;9.30;99.90;;;;;;5069114;28;20125;-49
2021/01/22 05:27:00;;;;;;;5.55;1.80;;;9.30;99.90;;;;;;5068787;28;20026;-51
2021/01/22 05:29:26;;;;;;;2.65;1.33;;;9.30;99.90;;;;;;5068349;28;20029;-48
2021/01/22 05:31:52;;;;;;;4.05;1.30;;;9.40;99.90;;;;;;5067976;28;20051;-47
2021/01/22 05:34:17;;;;;;;3.92;1.75;;;9.30;99.90;;;;;;5067943;28;20033;-48
2021/01/22 05:36:43;;;;;;;3.67;1.55;;;9.30;99.90;;;;;;5068022;28;20463;-49
2021/01/22 05:39:18;;;;;;;1.70;1.40;;;9.30;99.90;;;;;;5067035;28;20032;-47
2021/01/22 05:41:54;;;;;;;2.03;1.20;;;9.30;99.90;;;;;;5066653;28;20070;-47
2021/01/22 05:44:25;;;;;;;6.00;1.75;;;9.30;99.90;;;;;;5066720;28;20066;-47
2021/01/22 05:47:01;;;;;;;2.67;1.33;;;9.30;99.90;;;;;;5066065;28;20024;-50
2021/01/22 05:49:27;;;;;;;3.38;1.42;;;9.30;99.90;;;;;;5066428;28;20035;-47
2021/01/22 05:51:54;;;;;;;4.93;2.20;;;9.20;99.90;;;;;;5066362;28;20032;-47
2021/01/22 05:54:33;;;;;;;3.53;1.98;;;9.20;99.90;;;;;;5066334;28;20029;-49
2021/01/22 05:56:59;;;;;;;5.53;1.95;;;9.30;99.90;;;;;;5066403;28;20036;-47
2021/01/22 05:59:24;;;;;;;5.88;1.83;;;9.30;99.90;;;;;;5065878;28;20021;-48
2021/01/22 06:01:51;;;;;;;3.60;1.75;;;9.30;99.90;;;;;;5065789;28;20074;-47
2021/01/22 06:04:17;;;;;;;2.03;1.40;;;9.20;99.90;;;;;;5066248;28;20028;-47
2021/01/22 06:06:42;;;;;;;5.45;2.10;;;9.20;99.90;;;;;;5065857;28;20086;-48
2021/01/22 06:09:08;;;;;;;5.63;2.10;;;9.20;99.90;;;;;;5065431;28;20423;-48
2021/01/22 06:11:34;;;;;;;4.88;2.10;;;9.10;99.90;;;;;;5066427;28;20036;-49
2021/01/22 06:14:04;;;;;;;4.00;1.83;;;9.20;99.90;;;;;;5066220;28;20028;-47
2021/01/22 06:16:31;;;;;;;4.70;2.10;;;9.20;99.90;;;;;;5066309;28;20113;-47
2021/01/22 06:19:07;;;;;;;3.88;2.10;;;9.10;99.90;;;;;;5065484;28;20110;-48
2021/01/22 06:21:35;;;;;;;3.97;2.00;;;9.20;99.90;;;;;;5066354;28;20433;-47
2021/01/22 06:24:03;;;;;;;3.63;2.15;;;9.20;99.90;;;;;;5066074;28;20039;-47
2021/01/22 06:26:38;;;;;;;7.30;2.63;;;9.10;99.90;;;;;;5066096;28;20120;-47
2021/01/22 06:29:09;;;;;;;6.50;2.58;;;9.10;99.90;;;;;;5065847;28;20071;-48
2021/01/22 06:31:37;;;;;;;3.88;2.25;;;9.10;99.90;;;;;;5065394;28;20025;-49
2021/01/22 06:34:03;;;;;;;3.08;2.00;;;9.20;99.90;;;;;;5065552;28;20497;-51
2021/01/22 06:36:28;;;;;;;3.25;1.45;;;9.20;99.90;;;;;;5065632;28;20094;-50
2021/01/22 06:38:55;;;;;;;3.17;1.40;;;9.20;99.90;;;;;;5065030;28;20391;-51
2021/01/22 06:41:25;;;;;;;2.70;1.27;;;9.30;99.90;;;;;;5065405;28;20028;-51
2021/01/22 06:43:52;;;;;;;4.35;1.63;;;9.40;99.90;;;;;;5064812;28;20021;-50
2021/01/22 06:46:20;;;;;;;2.88;1.33;;;9.30;99.90;;;;;;5047093;28;20056;-47
2021/01/22 06:48:57;;;;;;;1.23;0.90;;;9.30;99.90;;;;;;5065248;28;20416;-48
2021/01/22 06:51:30;;;;;;;1.20;0.85;;;9.30;99.90;;;;;;5065317;28;20040;-47
2021/01/22 06:54:16;;;;;;;3.92;1.40;;;9.30;99.90;;;;;;5064777;28;20036;-52
2021/01/22 06:56:51;;;;;;;2.10;1.10;;;9.40;99.90;;;;;;5064922;28;20529;-47
2021/01/22 06:59:24;;;;;;;3.92;1.90;;;9.40;99.90;;;;;;5064481;28;20025;-50
2021/01/22 07:01:51;;;;;;;5.13;1.67;;;9.30;99.90;;;;;;5064958;28;20024;-50
2021/01/22 07:04:28;;;;;;;7.35;2.10;;;9.20;99.90;;;;;;5065108;28;20119;-47
2021/01/22 07:06:56;;;;;;;5.50;2.13;;;9.30;99.90;;;;;;5064508;28;20037;-48
2021/01/22 07:09:36;;;;;;;5.30;2.00;;;9.30;99.90;;;;;;5065085;28;20473;-46
2021/01/22 07:12:01;;;;;;;4.90;1.70;;;9.30;99.90;;;;;;5065412;28;20052;-47
2021/01/22 07:14:35;;;;;;;5.95;1.73;;;9.30;99.90;;;;;;5064876;28;20056;-48
2021/01/22 07:17:12;;;;;;;3.47;1.60;;;9.20;99.90;;;;;;5065121;28;20035;-47
2021/01/22 07:19:40;;;;;;;6.88;1.92;;;9.30;99.90;;;;;;5064369;28;20429;-48
2021/01/22 07:22:12;;;;;;;3.83;1.70;;;9.20;99.90;;;;;;5064167;28;20070;-47
2021/01/22 07:24:38;;;;;;;3.10;1.40;;;9.20;99.90;;;;;;5064737;28;20033;-48
2021/01/22 07:27:06;;;;;;;6.80;2.03;;;9.30;99.90;;;;;;5064358;28;20031;-51
2021/01/22 07:29:32;;;;;;;3.50;1.52;;;9.30;99.90;;;;;;5065364;28;20032;-48
2021/01/22 07:32:04;;;;;;;4.85;1.80;;;9.30;99.90;;;;;;5064418;28;20378;-46
2021/01/22 07:34:48;;;;;;;3.80;1.58;;;9.20;99.90;;;;;;5065308;28;20028;-47
2021/01/22 07:37:25;;;;;;;2.47;1.40;;;9.30;99.90;;;;;;5064587;28;20017;-47
2021/01/22 07:39:54;;;;;;;3.13;1.65;;;9.30;99.90;;;;;;5064568;28;20497;-47
2021/01/22 07:42:27;;;;;;;4.70;1.60;;;9.30;99.90;;;;;;5064645;28;20029;-50
2021/01/22 07:44:54;;;;;;;7.93;2.30;;;9.30;99.90;;;;;;5064178;28;20425;-48
2021/01/22 07:47:23;;;;;;;5.82;2.10;;;9.30;99.90;;;;;;5064448;28;20017;-46
2021/01/22 07:50:15;;;;;;;3.13;1.70;;;9.40;99.90;;;;;;5064561;28;20379;-48
2021/01/22 07:52:48;;;;;;;4.63;1.80;;;9.40;99.90;;;;;;5057782;28;20355;-47
2021/01/22 07:55:22;;;;;;;7.72;2.63;;;9.40;99.90;;;;;;5064466;28;20067;-47
2021/01/22 07:58:08;;;;;;;6.23;2.03;;;9.40;99.90;;;;;;5064679;28;20024;-47
2021/01/22 08:00:40;;;;;;;5.97;1.85;;;9.50;99.90;;;;;;5064009;28;20289;-47
2021/01/22 08:03:07;;;;;;;6.70;2.45;;;9.50;99.90;;;;;;5064462;28;20417;-47
2021/01/22 08:05:37;;;;;;;3.85;1.73;;;9.50;99.90;;;;;;5065049;28;20414;-47
2021/01/22 08:08:27;;;;;;;6.25;1.77;;;9.50;99.90;;;;;;5062999;28;20085;-49
2021/01/22 08:10:54;;;;;;;7.35;2.70;;;9.50;99.90;;;;;;5063494;28;20111;-50
2021/01/22 08:13:19;;;;;;;5.20;1.83;;;9.50;99.90;;;;;;5065145;28;20028;-47
2021/01/22 08:15:45;;;;;;;7.45;2.42;;;9.50;99.90;;;;;;5047350;28;20038;-47
2021/01/22 08:18:13;;;;;;;6.60;2.15;;;9.60;99.90;;;;;;5064706;28;20395;-47
2021/01/22 08:20:49;;;;;;;7.60;2.17;;;9.50;99.90;;;;;;5064094;28;20096;-48
2021/01/22 08:23:15;;;;;;;8.82;2.40;;;9.50;99.90;;;;;;5064268;28;20029;-47
2021/01/22 08:25:41;;;;;;;7.60;2.97;;;9.60;99.90;;;;;;5065800;28;20025;-48
2021/01/22 08:28:08;;;;;;;13.63;3.72;;;9.60;99.90;;;;;;5064308;28;20516;-49
2021/01/22 08:30:36;;;;;;;11.88;3.40;;;9.60;99.90;;;;;;5065288;28;20096;-50
2021/01/22 08:33:04;;;;;;;12.50;3.67;;;9.60;99.90;;;;;;5069227;28;20123;-49
2021/01/22 08:35:30;;;;;;;7.57;2.75;;;9.60;99.90;;;;;;5068163;28;20540;-47
2021/01/22 08:37:57;;;;;;;6.43;2.60;;;9.70;99.90;;;;;;5066948;28;20025;-49
2021/01/22 08:40:43;;;;;;;5.38;2.45;;;9.70;99.90;;;;;;5069193;28;20095;-50
2021/01/22 08:43:09;;;;;;;6.47;2.75;;;9.70;99.90;;;;;;5067166;28;20020;-47
2021/01/22 08:45:38;;;;;;;5.65;1.98;;;9.70;99.90;;;;;;5052127;28;20054;-51
2021/01/22 08:48:05;;;;;;;7.82;1.80;;;9.70;99.90;;;;;;5066491;28;20059;-51
2021/01/22 08:50:30;;;;;;;5.05;1.80;;;9.80;99.90;;;;;;5068624;28;20028;-48
2021/01/22 08:53:10;;;;;;;4.85;2.10;;;9.70;99.90;;;;;;5066204;28;20031;-50
2021/01/22 08:55:37;;;;;;;4.68;1.98;;;9.80;99.90;;;;;;5068661;28;20490;-49
2021/01/22 08:58:04;;;;;;;4.25;1.92;;;9.70;99.90;;;;;;5066546;28;20029;-49
2021/01/22 09:00:30;;;;;;;5.63;2.63;;;9.80;99.90;;;;;;5048951;28;20028;-50
2021/01/22 09:02:57;;;;;;;5.40;1.77;;;9.80;99.90;;;;;;5048357;28;20058;-47
2021/01/22 09:05:24;;;;;;;5.60;2.33;;;9.80;99.90;;;;;;5048492;28;20090;-52
2021/01/22 09:08:09;;;;;;;5.25;2.10;;;9.80;99.90;;;;;;5048157;28;20597;-47
2021/01/22 09:10:41;;;;;;;2.35;1.30;;;9.90;99.90;;;;;;5052497;28;20240;-48
2021/01/22 09:13:14;;;;;;;2.15;1.20;;;9.90;99.90;;;;;;5068384;28;20029;-48
2021/01/22 09:15:41;;;;;;;2.63;1.50;;;10.00;99.90;;;;;;5068309;28;20462;-48
2021/01/22 09:18:18;;;;;;;3.38;1.95;;;10.00;99.90;;;;;;5067894;28;20301;-50
2021/01/22 09:20:44;;;;;;;5.78;2.00;;;9.90;99.90;;;;;;5066195;28;20444;-47
2021/01/22 09:23:10;;;;;;;4.30;1.88;;;9.90;99.90;;;;;;5066963;28;20016;-46
2021/01/22 09:25:36;;;;;;;5.85;1.70;;;9.90;99.90;;;;;;5066820;28;20028;-48
2021/01/22 09:28:02;;;;;;;3.78;1.60;;;9.90;99.90;;;;;;5048782;28;20041;-46
2021/01/22 09:30:29;;;;;;;5.47;1.80;;;10.00;99.90;;;;;;5046884;28;20035;-48
2021/01/22 09:33:00;;;;;;;4.32;1.67;;;10.00;99.90;;;;;;5046476;28;20041;-47
2021/01/22 09:35:29;;;;;;;7.55;2.55;;;9.90;99.90;;;;;;5046848;28;20495;-48
2021/01/22 09:37:56;;;;;;;4.65;2.03;;;9.90;99.90;;;;;;5057568;28;20217;-49
2021/01/22 09:40:22;;;;;;;5.47;2.33;;;9.90;99.90;;;;;;5065595;28;20816;-48
2021/01/22 09:42:48;;;;;;;6.63;2.65;;;9.90;99.90;;;;;;5067877;28;20099;-47
2021/01/22 09:45:15;;;;;;;8.05;2.47;;;9.90;99.90;;;;;;5067035;28;20039;-47
2021/01/22 09:47:40;;;;;;;7.65;2.10;;;9.90;99.90;;;;;;5064639;28;20083;-47
2021/01/22 09:50:08;;;;;;;3.85;1.55;;;9.90;99.90;;;;;;5066153;28;20450;-47
2021/01/22 09:52:36;;;;;;;5.10;1.77;;;9.90;99.90;;;;;;5065742;28;20127;-48
2021/01/22 09:55:03;;;;;;;4.85;1.40;;;9.90;99.90;;;;;;5065867;28;20098;-47
2021/01/22 09:57:29;;;;;;;5.18;1.67;;;9.90;99.90;;;;;;5067186;28;20029;-48
2021/01/22 09:59:55;;;;;;;7.45;2.47;;;10.00;99.90;;;;;;5065843;28;20078;-47
2021/01/22 10:02:21;;;;;;;5.10;1.98;;;10.00;99.90;;;;;;5067601;28;20067;-47
2021/01/22 10:04:47;;;;;;;5.53;2.45;;;10.00;99.90;;;;;;5065214;28;20064;-47
2021/01/22 10:07:13;;;;;;;7.30;2.63;;;10.00;99.90;;;;;;5065219;28;20498;-47
2021/01/22 10:09:38;;;;;;;5.88;1.88;;;10.00;99.90;;;;;;5064239;28;20031;-47
2021/01/22 10:12:07;;;;;;;3.80;2.00;;;10.10;99.90;;;;;;5064204;28;20040;-46
2021/01/22 10:14:32;;;;;;;2.60;1.67;;;10.00;99.90;;;;;;5065358;28;20025;-46
2021/01/22 10:16:58;;;;;;;7.03;1.80;;;10.10;99.90;;;;;;5063928;28;20493;-47
2021/01/22 10:19:23;;;;;;;7.68;2.08;;;10.10;99.90;;;;;;5065261;28;20013;-48
2021/01/22 10:21:49;;;;;;;7.20;1.88;;;10.10;99.90;;;;;;5065621;28;20128;-46
2021/01/22 10:24:16;;;;;;;4.22;1.33;;;10.20;99.90;;;;;;5051563;28;20083;-47
2021/01/22 10:26:45;;;;;;;4.10;1.83;;;10.20;99.90;;;;;;5053563;28;20096;-48
2021/01/22 10:29:11;;;;;;;3.35;1.52;;;10.20;99.90;;;;;;5063932;28;20612;-50
2021/01/22 10:31:38;;;;;;;3.83;1.55;;;10.20;99.90;;;;;;5064064;28;20664;-47
2021/01/22 10:34:03;;;;;;;4.55;1.75;;;10.30;99.90;;;;;;5064819;28;20070;-47
2021/01/22 10:36:29;;;;;;;4.10;1.23;;;10.30;99.90;;;;;;5064961;28;20025;-46
2021/01/22 10:38:55;;;;;;;3.78;1.48;;;10.40;99.90;;;;;;5063653;28;20032;-49
2021/01/22 10:41:21;;;;;;;6.53;2.10;;;10.40;99.90;;;;;;5063959;28;20020;-48
2021/01/22 10:43:47;;;;;;;5.03;2.00;;;10.50;99.90;;;;;;5065376;28;20021;-47
2021/01/22 10:46:13;;;;;;;4.38;2.03;;;10.50;99.90;;;;;;5064778;28;20070;-50
2021/01/22 10:48:39;;;;;;;1.88;1.20;;;10.50;99.90;;;;;;5064848;28;20429;-47
2021/01/22 10:51:07;;;;;;;7.05;1.70;;;10.50;99.90;;;;;;5063049;28;20107;-47
2021/01/22 10:53:33;;;;;;;5.43;1.35;;;10.60;99.90;;;;;;5061608;28;20410;-47
2021/01/22 10:55:59;;;;;;;5.53;1.63;;;10.60;99.90;;;;;;5055038;28;20031;-51
2021/01/22 10:58:25;;;;;;;4.13;1.80;;;10.60;99.90;;;;;;5051435;28;20041;-47
2021/01/22 11:00:54;;;;;;;5.20;1.58;;;10.70;99.90;;;;;;5062995;28;20077;-51
2021/01/22 11:03:21;;;;;;;4.47;1.42;;;10.80;99.90;;;;;;5067203;28;20029;-48
2021/01/22 11:05:46;;;;;;;4.18;1.20;;;10.90;99.90;;;;;;5052919;28;20044;-48
2021/01/22 11:08:13;;;;;;;3.03;1.10;;;10.90;99.90;;;;;;5052452;28;20126;-48
2021/01/22 11:10:39;;;;;;;3.83;1.00;;;10.90;99.90;;;;;;5065018;28;20032;-47
2021/01/22 11:13:05;;;;;;;3.28;0.85;;;11.00;99.90;;;;;;5053128;28;20098;-49
2021/01/22 11:15:34;;;;;;;2.90;0.98;;;11.00;99.90;;;;;;5065991;28;20024;-50
2021/01/22 11:18:01;;;;;;;3.60;1.13;;;11.00;99.90;;;;;;5066354;28;20068;-50
2021/01/22 11:20:27;;;;;;;4.28;1.70;;;11.10;99.90;;;;;;5047888;28;20048;-50
2021/01/22 11:22:53;;;;;;;2.88;1.10;;;11.00;99.90;;;;;;5057968;28;20565;-47
2021/01/22 11:25:21;;;;;;;2.53;1.08;;;11.00;99.90;;;;;;5062589;28;20028;-49
2021/01/22 11:27:47;;;;;;;3.60;1.65;;;11.10;99.90;;;;;;5064210;28;20074;-47
2021/01/22 11:30:13;;;;;;;3.50;1.33;;;11.10;99.90;;;;;;5064861;28;20029;-50
2021/01/22 11:32:39;;;;;;;5.10;1.58;;;11.10;99.90;;;;;;5044675;28;20119;-51
2021/01/22 11:35:09;;;;;;;2.13;1.00;;;11.10;99.90;;;;;;5064387;28;20500;-49
2021/01/22 11:37:35;;;;;;;3.55;1.20;;;11.00;99.90;;;;;;5066036;28;20057;-48
2021/01/22 11:40:01;;;;;;;1.77;0.80;;;11.00;99.90;;;;;;5064438;28;20029;-50
2021/01/22 11:42:27;;;;;;;1.70;1.05;;;11.10;99.90;;;;;;5063657;28;20482;-49
2021/01/22 11:44:53;;;;;;;0.77;0.68;;;11.10;99.90;;;;;;5062472;28;20024;-48
2021/01/22 11:47:18;;;;;;;1.48;0.63;;;11.10;99.90;;;;;;5063165;28;20082;-48
2021/01/22 11:49:44;;;;;;;1.38;0.70;;;11.00;99.90;;;;;;5063556;28;20120;-49
2021/01/22 11:52:11;;;;;;;1.73;0.60;;;11.00;99.90;;;;;;5062501;28;20033;-48
2021/01/22 11:54:38;;;;;;;0.90;0.50;;;11.00;99.90;;;;;;5063183;28;20021;-47
2021/01/22 11:57:05;;;;;;;1.98;0.70;;;11.00;99.90;;;;;;5063643;28;20020;-47
2021/01/22 11:59:32;;;;;;;1.10;0.82;;;11.10;99.90;;;;;;5065102;28;20070;-47
2021/01/22 12:01:58;;;;;;;3.28;1.02;;;11.10;99.90;;;;;;5064119;28;20043;-52
2021/01/22 12:04:24;;;;;;;3.70;1.10;;;11.10;99.90;;;;;;5064119;28;20037;-48
2021/01/22 12:06:50;;;;;;;1.52;0.90;;;11.10;99.90;;;;;;5065246;28;20127;-48
2021/01/22 12:09:17;;;;;;;1.30;0.73;;;11.10;99.90;;;;;;5067887;28;20060;-50
2021/01/22 12:11:43;;;;;;;3.33;0.90;;;11.10;99.90;;;;;;5068071;28;20047;-48
2021/01/22 12:14:08;;;;;;;2.88;1.30;;;11.00;99.90;;;;;;5067611;28;20024;-47
2021/01/22 12:16:34;;;;;;;2.15;1.20;;;11.00;99.90;;;;;;5067828;28;20486;-50
2021/01/22 12:18:59;;;;;;;1.75;0.95;;;11.10;99.90;;;;;;5068021;28;20059;-50
2021/01/22 12:21:26;;;;;;;1.50;0.98;;;11.10;99.90;;;;;;5067822;28;20115;-47
2021/01/22 12:23:52;;;;;;;1.95;0.90;;;11.10;99.90;;;;;;5066945;28;20433;-48
2021/01/22 12:26:17;;;;;;;1.55;1.00;;;11.10;99.90;;;;;;5066687;28;20032;-47
2021/01/22 12:28:43;;;;;;;3.03;1.33;;;11.00;99.90;;;;;;5067542;28;20372;-48
2021/01/22 12:31:09;;;;;;;1.88;1.27;;;11.10;99.90;;;;;;5067356;28;20031;-47
2021/01/22 12:33:35;;;;;;;2.28;1.30;;;11.10;99.90;;;;;;5067661;28;20012;-47
2021/01/22 12:36:01;;;;;;;3.05;1.60;;;11.10;99.90;;;;;;5067822;28;20035;-47
2021/01/22 12:38:27;;;;;;;3.00;1.65;;;11.10;99.90;;;;;;5067163;28;20029;-48
2021/01/22 12:40:52;;;;;;;3.33;1.95;;;11.10;99.90;;;;;;5066972;28;20024;-49
2021/01/22 12:43:18;;;;;;;2.28;1.60;;;11.10;99.90;;;;;;5067675;28;20021;-47
2021/01/22 12:45:44;;;;;;;3.15;1.33;;;11.10;99.90;;;;;;5067769;28;20055;-47
2021/01/22 12:48:11;;;;;;;2.90;1.80;;;11.10;99.90;;;;;;5066941;28;20024;-47
2021/01/22 12:50:37;;;;;;;1.60;1.23;;;11.10;99.90;;;;;;5067476;28;20496;-48
2021/01/22 12:53:04;;;;;;;1.73;1.17;;;11.00;99.90;;;;;;5067513;28;20025;-48
2021/01/22 12:55:30;;;;;;;2.38;1.00;;;11.10;99.90;;;;;;5066855;28;20060;-47
2021/01/22 12:57:55;;;;;;;2.78;1.02;;;11.20;99.90;;;;;;5066795;28;20456;-48